Time;durP1;ratioP1;P1;durP2;ratioP2;P2;SDS_P1;SDS_P2;PMS_P1;PMS_P2;Temp;Humidity;BMP_temperature;BMP_pressure;BME280_temperature;BME280_humidity;BME280_pressure;Samples;Min_cycle;Max_cycle;Signal;HPM_P1;HPM_P2
2021/08/25 00:00:34;;;;;;;0.50;0.50;;;;;;;;;;5032197;28;20033;-62
2021/08/25 00:03:01;;;;;;;1.65;0.50;;;;;;;;;;5032925;28;20061;-62
2021/08/25 00:05:28;;;;;;;0.50;0.50;;;;;;;;;;5030639;28;20061;-62
2021/08/25 00:07:55;;;;;;;0.50;0.50;;;;;;;;;;5032659;28;20045;-62
2021/08/25 00:10:22;;;;;;;0.95;0.50;;;;;;;;;;5025548;28;20065;-62
2021/08/25 00:12:49;;;;;;;0.60;0.60;;;;;;;;;;5032915;28;20088;-62
2021/08/25 00:15:16;;;;;;;0.75;0.50;;;;;;;;;;5033206;28;20037;-63
2021/08/25 00:17:43;;;;;;;1.80;0.50;;;;;;;;;;5029363;28;20089;-60
2021/08/25 00:20:10;;;;;;;0.50;0.50;;;;;;;;;;5031324;28;20095;-62
2021/08/25 00:22:36;;;;;;;0.43;0.43;;;;;;;;;;5023538;28;20037;-62
2021/08/25 00:25:03;;;;;;;0.93;0.50;;;;;;;;;;5025210;28;20045;-62
2021/08/25 00:27:30;;;;;;;0.50;0.50;;;;;;;;;;5032797;28;20053;-62
2021/08/25 00:29:57;;;;;;;0.50;0.50;;;;;;;;;;5032162;28;20041;-60
2021/08/25 00:32:24;;;;;;;0.88;0.88;;;;;;;;;;5026381;28;20064;-62
2021/08/25 00:34:50;;;;;;;0.50;0.50;;;;;;;;;;5030431;28;20500;-63
2021/08/25 00:37:17;;;;;;;0.50;0.50;;;;;;;;;;5032845;28;20052;-62
2021/08/25 00:39:44;;;;;;;0.50;0.50;;;;;;;;;;5032635;28;20079;-62
2021/08/25 00:42:10;;;;;;;0.50;0.50;;;;;;;;;;5031840;28;20120;-62
2021/08/25 00:44:37;;;;;;;0.50;0.50;;;;;;;;;;5032514;28;20095;-62
2021/08/25 00:47:04;;;;;;;0.50;0.50;;;;;;;;;;5033172;28;20033;-62
2021/08/25 00:49:31;;;;;;;0.60;0.60;;;;;;;;;;5032787;28;20129;-62
2021/08/25 00:51:57;;;;;;;0.40;0.40;;;;;;;;;;5031641;28;20044;-62
2021/08/25 00:54:24;;;;;;;0.50;0.50;;;;;;;;;;5032053;28;20091;-62
2021/08/25 00:56:51;;;;;;;3.80;0.60;;;;;;;;;;5031523;28;20042;-62
2021/08/25 00:59:18;;;;;;;3.13;0.50;;;;;;;;;;5033103;28;20132;-62
2021/08/25 01:02:17;;;;;;;1.50;0.50;;;;;;;;;;5031714;28;20433;-62
2021/08/25 01:04:48;;;;;;;0.50;0.50;;;;;;;;;;5038691;28;20076;-61
2021/08/25 01:07:16;;;;;;;0.60;0.60;;;;;;;;;;5026258;28;20432;-62
2021/08/25 01:09:43;;;;;;;0.60;0.60;;;;;;;;;;5031717;28;20525;-61
2021/08/25 01:12:10;;;;;;;0.50;0.50;;;;;;;;;;5032062;28;20076;-61
2021/08/25 01:14:38;;;;;;;0.50;0.50;;;;;;;;;;5026726;28;20799;-62
2021/08/25 01:17:05;;;;;;;0.50;0.50;;;;;;;;;;5031452;28;20465;-62
2021/08/25 01:19:50;;;;;;;3.72;0.57;;;;;;;;;;5022940;28;20115;-62
2021/08/25 01:22:18;;;;;;;0.50;0.50;;;;;;;;;;5028782;28;20774;-61
2021/08/25 01:24:46;;;;;;;0.50;0.50;;;;;;;;;;5031844;28;20347;-63
2021/08/25 01:27:15;;;;;;;0.55;0.50;;;;;;;;;;5027266;28;20041;-62
2021/08/25 01:29:43;;;;;;;2.88;0.50;;;;;;;;;;5031932;28;20049;-62
2021/08/25 01:32:10;;;;;;;0.60;0.60;;;;;;;;;;5028516;28;20103;-61
2021/08/25 01:34:50;;;;;;;0.60;0.60;;;;;;;;;;5030411;28;20099;-63
2021/08/25 01:37:18;;;;;;;1.25;0.50;;;;;;;;;;5022466;28;20045;-62
2021/08/25 01:39:45;;;;;;;0.60;0.60;;;;;;;;;;5032739;28;20120;-62
2021/08/25 01:42:12;;;;;;;0.60;0.60;;;;;;;;;;5030140;28;20065;-62
2021/08/25 01:44:39;;;;;;;0.50;0.50;;;;;;;;;;5031080;28;20078;-62
2021/08/25 01:47:06;;;;;;;0.50;0.50;;;;;;;;;;5031038;28;20037;-62
2021/08/25 01:49:32;;;;;;;0.50;0.50;;;;;;;;;;5022858;28;20045;-62
2021/08/25 01:51:59;;;;;;;0.60;0.60;;;;;;;;;;5026092;28;20038;-62
2021/08/25 01:54:26;;;;;;;0.50;0.50;;;;;;;;;;5030154;28;20034;-62
2021/08/25 01:56:53;;;;;;;0.60;0.60;;;;;;;;;;5030053;28;20051;-62
2021/08/25 01:59:19;;;;;;;0.60;0.60;;;;;;;;;;5021941;28;20046;-62
2021/08/25 02:01:46;;;;;;;1.42;0.60;;;;;;;;;;5020587;28;20386;-62
2021/08/25 02:04:14;;;;;;;0.57;0.57;;;;;;;;;;5024965;28;20069;-61
2021/08/25 02:06:41;;;;;;;0.55;0.55;;;;;;;;;;5024547;28;20042;-62
2021/08/25 02:09:08;;;;;;;0.52;0.52;;;;;;;;;;5027093;28;20495;-61
2021/08/25 02:11:35;;;;;;;0.88;0.60;;;;;;;;;;5027914;28;20075;-62
2021/08/25 02:14:01;;;;;;;0.60;0.60;;;;;;;;;;5031784;28;20048;-62
2021/08/25 02:16:28;;;;;;;1.15;0.50;;;;;;;;;;5031345;28;20069;-62
2021/08/25 02:18:55;;;;;;;0.60;0.60;;;;;;;;;;5030273;28;20025;-62
2021/08/25 02:21:23;;;;;;;0.50;0.50;;;;;;;;;;5022157;28;20424;-61
2021/08/25 02:23:49;;;;;;;0.60;0.60;;;;;;;;;;5029597;28;20041;-62
2021/08/25 02:26:16;;;;;;;0.52;0.52;;;;;;;;;;5030682;28;20083;-61
2021/08/25 02:28:50;;;;;;;0.50;0.50;;;;;;;;;;5029154;28;20052;-63
2021/08/25 02:31:16;;;;;;;0.60;0.60;;;;;;;;;;5030584;28;20076;-63
2021/08/25 02:33:44;;;;;;;0.60;0.60;;;;;;;;;;5026006;28;20045;-62
2021/08/25 02:36:11;;;;;;;0.60;0.60;;;;;;;;;;5030331;28;20068;-63
2021/08/25 02:38:38;;;;;;;0.90;0.60;;;;;;;;;;5029126;28;20388;-61
2021/08/25 02:41:06;;;;;;;0.50;0.50;;;;;;;;;;5029895;28;20049;-62
2021/08/25 02:43:33;;;;;;;0.60;0.60;;;;;;;;;;5029885;28;20041;-62
2021/08/25 02:46:00;;;;;;;0.70;0.70;;;;;;;;;;5029804;28;20029;-62
2021/08/25 02:48:27;;;;;;;0.50;0.50;;;;;;;;;;5019512;28;20044;-60
2021/08/25 02:50:54;;;;;;;0.73;0.60;;;;;;;;;;5030149;28;20099;-62
2021/08/25 02:53:21;;;;;;;0.60;0.60;;;;;;;;;;5028790;28;20033;-62
2021/08/25 02:55:48;;;;;;;0.50;0.50;;;;;;;;;;5031040;28;20042;-61
2021/08/25 02:58:14;;;;;;;0.60;0.60;;;;;;;;;;5029778;28;20669;-62
2021/08/25 03:00:41;;;;;;;1.55;0.60;;;;;;;;;;5031486;28;20611;-63
2021/08/25 03:03:08;;;;;;;0.50;0.50;;;;;;;;;;5026688;28;20429;-62
2021/08/25 03:05:35;;;;;;;0.70;0.70;;;;;;;;;;5023549;28;20042;-62
2021/08/25 03:08:02;;;;;;;0.65;0.65;;;;;;;;;;5027214;28;20379;-62
2021/08/25 03:10:29;;;;;;;0.60;0.60;;;;;;;;;;5028162;28;20037;-62
2021/08/25 03:12:56;;;;;;;1.20;0.60;;;;;;;;;;5030503;28;20516;-60
2021/08/25 03:15:22;;;;;;;1.02;0.60;;;;;;;;;;5027168;28;20034;-63
2021/08/25 03:17:49;;;;;;;0.65;0.65;;;;;;;;;;5027918;28;20037;-61
2021/08/25 03:20:17;;;;;;;1.38;0.60;;;;;;;;;;5017657;28;20521;-62
2021/08/25 03:22:43;;;;;;;0.52;0.52;;;;;;;;;;5024904;28;20049;-62
2021/08/25 03:25:10;;;;;;;0.55;0.55;;;;;;;;;;5026655;28;20041;-62
2021/08/25 03:27:37;;;;;;;0.55;0.55;;;;;;;;;;5024083;28;20104;-61
2021/08/25 03:30:04;;;;;;;0.60;0.60;;;;;;;;;;5018087;28;20041;-62
2021/08/25 03:32:31;;;;;;;0.60;0.60;;;;;;;;;;5030015;28;20045;-62
2021/08/25 03:34:58;;;;;;;0.60;0.60;;;;;;;;;;5028824;28;20103;-61
2021/08/25 03:37:24;;;;;;;1.17;0.60;;;;;;;;;;5021487;28;20034;-63
2021/08/25 03:39:51;;;;;;;1.40;0.60;;;;;;;;;;5026296;28;20084;-62
2021/08/25 03:42:18;;;;;;;1.20;0.60;;;;;;;;;;5028489;28;20488;-61
2021/08/25 03:44:44;;;;;;;3.05;0.60;;;;;;;;;;5016624;28;20065;-63
2021/08/25 03:47:11;;;;;;;0.60;0.60;;;;;;;;;;5024383;28;20462;-63
2021/08/25 03:49:38;;;;;;;0.60;0.60;;;;;;;;;;5014626;28;20120;-62
2021/08/25 03:52:05;;;;;;;1.50;0.60;;;;;;;;;;5028664;28;20033;-61
2021/08/25 03:54:32;;;;;;;0.60;0.60;;;;;;;;;;5021209;28;20393;-62
2021/08/25 03:56:59;;;;;;;0.60;0.60;;;;;;;;;;5029530;28;20037;-62
2021/08/25 03:59:25;;;;;;;0.60;0.60;;;;;;;;;;5025993;28;20088;-63
2021/08/25 04:01:52;;;;;;;0.57;0.57;;;;;;;;;;5015664;28;20033;-63
2021/08/25 04:04:19;;;;;;;0.60;0.60;;;;;;;;;;5021497;28;20520;-63
2021/08/25 04:06:46;;;;;;;0.60;0.60;;;;;;;;;;5031591;28;20044;-61
2021/08/25 04:09:13;;;;;;;0.68;0.68;;;;;;;;;;5021452;28;20157;-62
2021/08/25 04:11:39;;;;;;;0.60;0.60;;;;;;;;;;5031101;28;20057;-62
2021/08/25 04:14:06;;;;;;;0.60;0.60;;;;;;;;;;5032625;28;20091;-63
2021/08/25 04:16:33;;;;;;;1.48;0.50;;;;;;;;;;5029797;28;20041;-62
2021/08/25 04:19:00;;;;;;;0.60;0.60;;;;;;;;;;5031563;28;20496;-63
2021/08/25 04:21:26;;;;;;;0.55;0.55;;;;;;;;;;5025466;28;20505;-63
2021/08/25 04:23:53;;;;;;;0.63;0.63;;;;;;;;;;5031628;28;20057;-63
2021/08/25 04:26:20;;;;;;;0.60;0.60;;;;;;;;;;5018756;28;20488;-62
2021/08/25 04:28:47;;;;;;;1.77;0.60;;;;;;;;;;5032938;28;20046;-62
2021/08/25 04:31:13;;;;;;;0.60;0.60;;;;;;;;;;5030334;28;20047;-62
2021/08/25 04:33:40;;;;;;;0.70;0.70;;;;;;;;;;5030472;28;20104;-62
2021/08/25 04:36:07;;;;;;;3.28;0.70;;;;;;;;;;5026274;28;20045;-62
2021/08/25 04:38:34;;;;;;;0.60;0.60;;;;;;;;;;5021748;28;20034;-62
2021/08/25 04:41:00;;;;;;;0.63;0.63;;;;;;;;;;5032740;28;20045;-61
2021/08/25 04:43:28;;;;;;;0.60;0.60;;;;;;;;;;5030074;28;20048;-63
2021/08/25 04:45:55;;;;;;;0.60;0.60;;;;;;;;;;5032206;28;20037;-60
2021/08/25 04:48:22;;;;;;;0.60;0.60;;;;;;;;;;5031855;28;20053;-61
2021/08/25 04:50:49;;;;;;;0.60;0.60;;;;;;;;;;5028106;28;20045;-62
2021/08/25 04:53:16;;;;;;;1.30;0.60;;;;;;;;;;5031284;28;20045;-63
2021/08/25 04:55:43;;;;;;;0.55;0.55;;;;;;;;;;5027342;28;20049;-62
2021/08/25 04:58:10;;;;;;;0.60;0.60;;;;;;;;;;5012497;28;20038;-63
2021/08/25 05:00:36;;;;;;;0.60;0.60;;;;;;;;;;5030166;28;20513;-62
2021/08/25 05:03:03;;;;;;;0.60;0.60;;;;;;;;;;5030464;28;20033;-63
2021/08/25 05:05:31;;;;;;;0.50;0.50;;;;;;;;;;5021144;28;20625;-62
2021/08/25 05:07:57;;;;;;;0.60;0.60;;;;;;;;;;5030879;28;20478;-62
2021/08/25 05:10:24;;;;;;;0.75;0.60;;;;;;;;;;5016317;28;20037;-62
2021/08/25 05:12:51;;;;;;;0.93;0.60;;;;;;;;;;5032302;28;20445;-62
2021/08/25 05:15:18;;;;;;;1.77;0.60;;;;;;;;;;5029668;28;20042;-62
2021/08/25 05:17:45;;;;;;;0.60;0.60;;;;;;;;;;5031564;28;20060;-63
2021/08/25 05:20:11;;;;;;;0.60;0.60;;;;;;;;;;5028359;28;20037;-63
2021/08/25 05:22:38;;;;;;;0.60;0.60;;;;;;;;;;5024859;28;20069;-63
2021/08/25 05:25:05;;;;;;;0.60;0.60;;;;;;;;;;5023567;28;20042;-60
2021/08/25 05:27:32;;;;;;;0.70;0.70;;;;;;;;;;5024941;28;20064;-55
2021/08/25 05:29:59;;;;;;;0.60;0.60;;;;;;;;;;5031019;28;20522;-58
2021/08/25 05:32:25;;;;;;;3.15;0.60;;;;;;;;;;5026421;28;20067;-57
2021/08/25 05:34:52;;;;;;;0.95;0.60;;;;;;;;;;5026655;28;20042;-57
2021/08/25 05:37:19;;;;;;;3.25;0.60;;;;;;;;;;5029791;28;20125;-58
2021/08/25 05:39:45;;;;;;;0.73;0.70;;;;;;;;;;5022140;28;20038;-58
2021/08/25 05:42:12;;;;;;;1.95;0.55;;;;;;;;;;5030939;28;20087;-58
2021/08/25 05:44:39;;;;;;;1.40;0.60;;;;;;;;;;5029822;28;20056;-58
2021/08/25 05:47:06;;;;;;;1.08;0.52;;;;;;;;;;5028611;28;20061;-57
2021/08/25 05:49:33;;;;;;;1.67;0.60;;;;;;;;;;5031879;28;20489;-57
2021/08/25 05:52:00;;;;;;;0.60;0.60;;;;;;;;;;5025219;28;20046;-58
2021/08/25 05:54:26;;;;;;;2.50;0.60;;;;;;;;;;5019766;28;20045;-57
2021/08/25 05:56:53;;;;;;;0.50;0.50;;;;;;;;;;5023404;28;20052;-55
2021/08/25 05:59:20;;;;;;;0.50;0.50;;;;;;;;;;5016520;28;20038;-58
2021/08/25 06:01:47;;;;;;;1.77;0.60;;;;;;;;;;5031218;28;20037;-58
2021/08/25 06:04:14;;;;;;;0.60;0.60;;;;;;;;;;5029661;28;20552;-58
2021/08/25 06:06:40;;;;;;;0.55;0.50;;;;;;;;;;5018560;28;20041;-57
2021/08/25 06:09:07;;;;;;;0.60;0.60;;;;;;;;;;5029739;28;20444;-58
2021/08/25 06:11:39;;;;;;;0.55;0.50;;;;;;;;;;5029298;28;20041;-58
2021/08/25 06:14:07;;;;;;;0.77;0.60;;;;;;;;;;5016947;28;20077;-57
2021/08/25 06:16:34;;;;;;;1.10;0.60;;;;;;;;;;5025361;28;20144;-58
2021/08/25 06:19:05;;;;;;;0.75;0.60;;;;;;;;;;5027546;28;20052;-58
2021/08/25 06:21:32;;;;;;;1.63;0.60;;;;;;;;;;5031029;28;20056;-58
2021/08/25 06:23:59;;;;;;;1.20;0.60;;;;;;;;;;5022385;28;20252;-58
2021/08/25 06:26:26;;;;;;;1.25;0.60;;;;;;;;;;5029898;28;20077;-57
2021/08/25 06:28:52;;;;;;;1.52;0.60;;;;;;;;;;5028319;28;20041;-56
2021/08/25 06:31:19;;;;;;;0.93;0.60;;;;;;;;;;5027605;28;20041;-58
2021/08/25 06:33:46;;;;;;;1.27;0.80;;;;;;;;;;5029887;28;20042;-57
2021/08/25 06:36:12;;;;;;;0.73;0.60;;;;;;;;;;5027939;28;20796;-58
2021/08/25 06:38:39;;;;;;;0.55;0.55;;;;;;;;;;5022677;28;20425;-58
2021/08/25 06:41:06;;;;;;;0.60;0.60;;;;;;;;;;5024993;28;20038;-59
2021/08/25 06:43:33;;;;;;;1.35;0.60;;;;;;;;;;5014714;28;20033;-57
2021/08/25 06:45:59;;;;;;;1.85;0.70;;;;;;;;;;5029753;28;20595;-58
2021/08/25 06:48:26;;;;;;;1.50;0.60;;;;;;;;;;5027930;28;20033;-59
2021/08/25 06:50:53;;;;;;;0.60;0.60;;;;;;;;;;5029833;28;20033;-58
2021/08/25 06:53:21;;;;;;;1.10;0.60;;;;;;;;;;5030220;28;20068;-58
2021/08/25 06:55:48;;;;;;;2.40;0.60;;;;;;;;;;5017902;28;20049;-57
2021/08/25 06:58:15;;;;;;;7.45;2.13;;;;;;;;;;5029768;28;20041;-57
2021/08/25 07:00:41;;;;;;;0.90;0.65;;;;;;;;;;5028813;28;20045;-59
2021/08/25 07:03:08;;;;;;;0.88;0.60;;;;;;;;;;5028774;28;20037;-57
2021/08/25 07:05:35;;;;;;;1.30;0.55;;;;;;;;;;5029383;28;20037;-59
2021/08/25 07:08:02;;;;;;;1.15;0.80;;;;;;;;;;5028291;28;20034;-58
2021/08/25 07:10:29;;;;;;;3.63;0.60;;;;;;;;;;5023477;28;20046;-60
2021/08/25 07:12:55;;;;;;;0.60;0.60;;;;;;;;;;5023544;28;20073;-59
2021/08/25 07:15:22;;;;;;;1.83;0.50;;;;;;;;;;5011662;28;20053;-59
2021/08/25 07:17:49;;;;;;;1.50;0.50;;;;;;;;;;5022836;28;20096;-56
2021/08/25 07:20:15;;;;;;;1.25;0.60;;;;;;;;;;5022293;28;20034;-58
2021/08/25 07:22:42;;;;;;;1.63;0.50;;;;;;;;;;5030294;28;20375;-59
2021/08/25 07:25:09;;;;;;;1.05;0.80;;;;;;;;;;5028625;28;20045;-60
2021/08/25 07:27:36;;;;;;;1.27;0.57;;;;;;;;;;5025837;28;20042;-58
2021/08/25 07:30:04;;;;;;;0.82;0.50;;;;;;;;;;5029601;28;20037;-59
2021/08/25 07:32:31;;;;;;;0.95;0.50;;;;;;;;;;5028126;28;20034;-59
2021/08/25 07:34:58;;;;;;;2.05;0.50;;;;;;;;;;5029467;28;20532;-59
2021/08/25 07:37:24;;;;;;;0.60;0.60;;;;;;;;;;5028060;28;20037;-59
2021/08/25 07:39:51;;;;;;;1.05;0.60;;;;;;;;;;5023162;28;20034;-59
2021/08/25 07:42:18;;;;;;;2.08;0.60;;;;;;;;;;5032822;28;20488;-59
2021/08/25 07:44:44;;;;;;;2.67;0.60;;;;;;;;;;5033629;28;20049;-59
2021/08/25 07:47:11;;;;;;;2.28;0.55;;;;;;;;;;5016963;28;20151;-59
2021/08/25 07:49:38;;;;;;;1.55;0.70;;;;;;;;;;5029691;28;20616;-60
2021/08/25 07:52:05;;;;;;;0.70;0.70;;;;;;;;;;5029241;28;20037;-59
2021/08/25 07:54:32;;;;;;;0.50;0.50;;;;;;;;;;5030589;28;20037;-59
2021/08/25 07:56:58;;;;;;;1.33;0.50;;;;;;;;;;5024110;28;20041;-60
2021/08/25 07:59:25;;;;;;;2.13;0.60;;;;;;;;;;5018131;28;20041;-59
2021/08/25 08:01:52;;;;;;;0.50;0.50;;;;;;;;;;5027681;28;20038;-59
2021/08/25 08:04:19;;;;;;;0.60;0.60;;;;;;;;;;5018166;28;20044;-59
2021/08/25 08:06:46;;;;;;;0.60;0.47;;;;;;;;;;5033620;28;20037;-59
2021/08/25 08:09:13;;;;;;;1.75;0.60;;;;;;;;;;5026653;28;20064;-60
2021/08/25 08:11:40;;;;;;;0.57;0.57;;;;;;;;;;5028873;28;20053;-60
2021/08/25 08:14:08;;;;;;;1.33;0.50;;;;;;;;;;5026704;28;20385;-60
2021/08/25 08:16:35;;;;;;;2.17;0.60;;;;;;;;;;5035398;28;20116;-59
2021/08/25 08:19:05;;;;;;;0.50;0.50;;;;;;;;;;5031236;28;20083;-60
2021/08/25 08:21:32;;;;;;;4.38;0.50;;;;;;;;;;5030101;28;20033;-59
2021/08/25 08:23:59;;;;;;;0.73;0.50;;;;;;;;;;5014053;28;20034;-59
2021/08/25 08:26:26;;;;;;;0.50;0.50;;;;;;;;;;5032027;28;20041;-59
2021/08/25 08:28:53;;;;;;;0.52;0.52;;;;;;;;;;5031345;28;20049;-59
2021/08/25 08:31:20;;;;;;;0.50;0.50;;;;;;;;;;5032428;28;20087;-60
2021/08/25 08:33:47;;;;;;;1.85;0.50;;;;;;;;;;5042042;28;20088;-60
2021/08/25 08:36:14;;;;;;;0.55;0.55;;;;;;;;;;5030050;28;20088;-60
2021/08/25 08:38:41;;;;;;;2.25;0.50;;;;;;;;;;5023297;28;20069;-59
2021/08/25 08:41:08;;;;;;;0.52;0.50;;;;;;;;;;5025394;28;20504;-60
2021/08/25 08:43:40;;;;;;;0.40;0.40;;;;;;;;;;5027951;28;20037;-60
2021/08/25 08:46:07;;;;;;;0.77;0.50;;;;;;;;;;5030421;28;20109;-60
2021/08/25 08:48:34;;;;;;;0.60;0.60;;;;;;;;;;5030879;28;20072;-59
2021/08/25 08:51:01;;;;;;;0.50;0.47;;;;;;;;;;5031842;28;20048;-60
2021/08/25 08:53:28;;;;;;;1.38;0.50;;;;;;;;;;5030165;28;20073;-60
2021/08/25 08:55:55;;;;;;;0.52;0.50;;;;;;;;;;5031966;28;20041;-60
2021/08/25 08:58:21;;;;;;;0.68;0.40;;;;;;;;;;5029441;28;20052;-58
2021/08/25 09:00:48;;;;;;;0.43;0.40;;;;;;;;;;5017242;28;20092;-60
2021/08/25 09:03:20;;;;;;;1.65;0.40;;;;;;;;;;5030370;28;20034;-59
2021/08/25 09:06:07;;;;;;;0.50;0.50;;;;;;;;;;5030442;28;20080;-59
2021/08/25 09:08:35;;;;;;;0.50;0.50;;;;;;;;;;5014797;28;20038;-60
2021/08/25 09:11:13;;;;;;;0.50;0.50;;;;;;;;;;5023828;28;20045;-59
2021/08/25 09:13:42;;;;;;;0.77;0.50;;;;;;;;;;5030765;28;20064;-58
2021/08/25 09:16:23;;;;;;;2.85;0.57;;;;;;;;;;5014769;28;20042;-59
2021/08/25 09:19:00;;;;;;;0.60;0.50;;;;;;;;;;5029697;28;20654;-60
2021/08/25 09:21:30;;;;;;;1.35;0.47;;;;;;;;;;5029852;28;20497;-60
2021/08/25 09:23:57;;;;;;;1.95;0.60;;;;;;;;;;5030332;28;20041;-60
2021/08/25 09:26:24;;;;;;;1.45;0.40;;;;;;;;;;5030432;28;20038;-59
2021/08/25 09:28:52;;;;;;;1.20;0.50;;;;;;;;;;5019016;28;20133;-60
2021/08/25 09:31:19;;;;;;;0.40;0.40;;;;;;;;;;5032013;28;20055;-59
2021/08/25 09:39:32;;;;;;;1.40;0.60;;;;;;;;;;5083468;27;20358;-85
2021/08/25 09:41:59;;;;;;;4.38;0.60;;;;;;;;;;5067167;28;20033;-83
2021/08/25 09:44:26;;;;;;;1.38;0.60;;;;;;;;;;5065490;28;20072;-83
2021/08/25 09:46:58;;;;;;;1.25;0.50;;;;;;;;;;5065608;28;20391;-83
2021/08/25 09:49:25;;;;;;;0.50;0.50;;;;;;;;;;5064977;28;20033;-83
2021/08/25 09:51:54;;;;;;;1.27;0.50;;;;;;;;;;5065384;28;20028;-83
2021/08/25 09:54:21;;;;;;;0.50;0.50;;;;;;;;;;5064362;28;20037;-83
2021/08/25 09:56:51;;;;;;;0.60;0.60;;;;;;;;;;5066220;28;20516;-83
2021/08/25 09:59:17;;;;;;;0.52;0.50;;;;;;;;;;5066119;28;20532;-83
2021/08/25 10:01:45;;;;;;;1.17;0.50;;;;;;;;;;5057201;28;20479;-83
2021/08/25 10:04:14;;;;;;;0.40;0.40;;;;;;;;;;5066398;28;20028;-83
2021/08/25 10:06:43;;;;;;;2.45;0.60;;;;;;;;;;5083745;28;20033;-83
2021/08/25 10:09:10;;;;;;;1.17;0.40;;;;;;;;;;5038216;28;20041;-83
2021/08/25 10:11:39;;;;;;;2.33;0.40;;;;;;;;;;5042770;28;20037;-83
2021/08/25 10:14:07;;;;;;;0.52;0.40;;;;;;;;;;5043911;28;20041;-83
2021/08/25 10:16:42;;;;;;;0.82;0.70;;;;;;;;;;5060734;28;20079;-83
2021/08/25 10:19:26;;;;;;;0.82;0.43;;;;;;;;;;5044258;28;20051;-83
2021/08/25 10:22:00;;;;;;;2.47;0.40;;;;;;;;;;5025857;28;20489;-83
2021/08/25 10:24:27;;;;;;;1.25;0.40;;;;;;;;;;5075672;28;20048;-83
2021/08/25 10:27:00;;;;;;;1.77;0.40;;;;;;;;;;5045718;28;20613;-83
2021/08/25 10:29:27;;;;;;;0.40;0.40;;;;;;;;;;5035786;28;20045;-83
2021/08/25 10:31:53;;;;;;;0.40;0.40;;;;;;;;;;5046179;28;20087;-83
2021/08/25 10:34:22;;;;;;;0.77;0.50;;;;;;;;;;5044020;28;20068;-83
2021/08/25 10:36:49;;;;;;;1.20;0.50;;;;;;;;;;5044068;28;20515;-83
2021/08/25 10:39:30;;;;;;;0.60;0.60;;;;;;;;;;5043211;28;20053;-83
2021/08/25 10:41:58;;;;;;;0.40;0.40;;;;;;;;;;5075861;28;20417;-83
2021/08/25 10:44:36;;;;;;;0.50;0.50;;;;;;;;;;5039047;28;20049;-82
2021/08/25 10:47:04;;;;;;;1.45;0.45;;;;;;;;;;5041326;28;20462;-81
2021/08/25 10:49:31;;;;;;;0.40;0.40;;;;;;;;;;5037048;28;20523;-81
2021/08/25 10:52:13;;;;;;;0.40;0.40;;;;;;;;;;5026175;28;20044;-81
2021/08/25 10:54:40;;;;;;;0.30;0.30;;;;;;;;;;5032835;28;20174;-81
2021/08/25 10:57:08;;;;;;;0.50;0.40;;;;;;;;;;5030960;28;20041;-81
2021/08/25 10:59:35;;;;;;;0.30;0.30;;;;;;;;;;5061013;28;20108;-81
2021/08/25 11:02:02;;;;;;;2.55;0.40;;;;;;;;;;5015485;28;20046;-81
2021/08/25 11:04:29;;;;;;;2.40;0.40;;;;;;;;;;5030475;28;20078;-81
2021/08/25 11:07:05;;;;;;;0.43;0.40;;;;;;;;;;5061725;28;20753;-81
2021/08/25 11:09:33;;;;;;;1.23;0.40;;;;;;;;;;5030262;28;20053;-81
2021/08/25 11:11:59;;;;;;;0.47;0.47;;;;;;;;;;5028285;28;20060;-81
2021/08/25 11:14:34;;;;;;;1.27;0.35;;;;;;;;;;5027451;28;20096;-81
2021/08/25 11:17:20;;;;;;;1.08;0.30;;;;;;;;;;5029515;28;20037;-81
2021/08/25 11:19:53;;;;;;;0.90;0.40;;;;;;;;;;5028700;28;20038;-81
2021/08/25 11:22:29;;;;;;;0.40;0.40;;;;;;;;;;5023283;28;20045;-81
2021/08/25 11:24:57;;;;;;;0.32;0.32;;;;;;;;;;5057061;28;20398;-81
2021/08/25 11:27:24;;;;;;;0.47;0.30;;;;;;;;;;5038365;28;20033;-81
2021/08/25 11:30:01;;;;;;;0.40;0.40;;;;;;;;;;5030558;28;20355;-81
2021/08/25 11:32:52;;;;;;;0.30;0.30;;;;;;;;;;5055972;28;20045;-81
2021/08/25 11:35:31;;;;;;;0.30;0.30;;;;;;;;;;5029993;28;20053;-82
2021/08/25 11:38:00;;;;;;;0.30;0.30;;;;;;;;;;5017073;28;20042;-83
2021/08/25 11:40:27;;;;;;;0.98;0.30;;;;;;;;;;5027119;28;20041;-83
2021/08/25 11:42:55;;;;;;;0.30;0.30;;;;;;;;;;5029653;28;20053;-83
2021/08/25 11:45:22;;;;;;;0.40;0.40;;;;;;;;;;5030907;28;20037;-83
2021/08/25 11:47:53;;;;;;;1.23;0.30;;;;;;;;;;5031189;28;20377;-83
2021/08/25 11:50:22;;;;;;;1.17;0.30;;;;;;;;;;5027008;28;20073;-83
2021/08/25 11:52:49;;;;;;;1.20;0.40;;;;;;;;;;5026644;28;20045;-83
2021/08/25 11:55:17;;;;;;;1.48;0.30;;;;;;;;;;5030150;28;20045;-83
2021/08/25 11:57:46;;;;;;;0.30;0.30;;;;;;;;;;5030830;28;20065;-83
2021/08/25 12:00:15;;;;;;;1.73;0.30;;;;;;;;;;5029124;28;20041;-83
2021/08/25 12:02:52;;;;;;;0.40;0.40;;;;;;;;;;5013147;28;20050;-83
2021/08/25 12:05:21;;;;;;;0.52;0.30;;;;;;;;;;5029621;28;20045;-83
2021/08/25 12:08:00;;;;;;;0.30;0.30;;;;;;;;;;5045422;28;20043;-83
2021/08/25 12:10:27;;;;;;;1.08;0.30;;;;;;;;;;5027865;28;20095;-83
2021/08/25 12:12:56;;;;;;;0.30;0.30;;;;;;;;;;5027919;28;20049;-83
2021/08/25 12:15:42;;;;;;;0.38;0.30;;;;;;;;;;5029574;28;20436;-83
2021/08/25 12:18:09;;;;;;;0.40;0.40;;;;;;;;;;5031931;28;20045;-83
2021/08/25 12:20:40;;;;;;;0.40;0.40;;;;;;;;;;5021398;28;20045;-83
2021/08/25 12:23:07;;;;;;;0.82;0.30;;;;;;;;;;5026883;28;20034;-77
2021/08/25 12:25:42;;;;;;;0.38;0.30;;;;;;;;;;5059907;28;20033;-77
2021/08/25 12:28:13;;;;;;;0.60;0.40;;;;;;;;;;5021032;28;20111;-77
2021/08/25 12:30:41;;;;;;;0.38;0.35;;;;;;;;;;5016375;28;20107;-78
2021/08/25 12:33:10;;;;;;;0.35;0.30;;;;;;;;;;5040937;28;20072;-78
2021/08/25 12:35:38;;;;;;;0.40;0.30;;;;;;;;;;5030423;28;20042;-78
2021/08/25 12:38:05;;;;;;;0.35;0.30;;;;;;;;;;5020980;28;20038;-78
2021/08/25 12:40:32;;;;;;;0.85;0.35;;;;;;;;;;5027339;28;20034;-78
2021/08/25 12:42:59;;;;;;;0.60;0.40;;;;;;;;;;5030387;28;20035;-78
2021/08/25 12:45:29;;;;;;;0.60;0.30;;;;;;;;;;5057843;28;20029;-78
2021/08/25 12:47:56;;;;;;;2.22;0.30;;;;;;;;;;5015137;28;20429;-79
2021/08/25 12:50:23;;;;;;;0.93;0.32;;;;;;;;;;5030725;28;20041;-78
2021/08/25 12:52:50;;;;;;;2.38;0.30;;;;;;;;;;5060229;28;20029;-78
2021/08/25 12:55:18;;;;;;;1.27;0.40;;;;;;;;;;5028998;28;20082;-78
2021/08/25 12:57:45;;;;;;;0.43;0.30;;;;;;;;;;5029943;28;20033;-78
2021/08/25 13:00:12;;;;;;;0.30;0.30;;;;;;;;;;5030044;28;20072;-78
2021/08/25 13:02:40;;;;;;;0.28;0.28;;;;;;;;;;5029714;28;20056;-78
2021/08/25 13:05:12;;;;;;;0.30;0.30;;;;;;;;;;5029076;28;20370;-78
2021/08/25 13:07:39;;;;;;;0.50;0.30;;;;;;;;;;5027621;28;20037;-78
2021/08/25 13:10:06;;;;;;;0.30;0.30;;;;;;;;;;5041802;28;20398;-78
2021/08/25 13:12:33;;;;;;;0.75;0.30;;;;;;;;;;5022838;28;20056;-78
2021/08/25 13:15:00;;;;;;;0.40;0.40;;;;;;;;;;5029188;28;20045;-78
2021/08/25 13:17:29;;;;;;;0.30;0.30;;;;;;;;;;5029512;28;20145;-78
2021/08/25 13:19:56;;;;;;;0.30;0.30;;;;;;;;;;5039755;28;20092;-78
2021/08/25 13:22:23;;;;;;;0.30;0.30;;;;;;;;;;5022555;28;20506;-78
2021/08/25 13:24:49;;;;;;;0.35;0.28;;;;;;;;;;5019902;28;20037;-78
2021/08/25 13:27:17;;;;;;;0.40;0.30;;;;;;;;;;5025321;28;20073;-78
2021/08/25 13:29:45;;;;;;;0.47;0.30;;;;;;;;;;5027537;28;20036;-78
2021/08/25 13:32:11;;;;;;;0.30;0.30;;;;;;;;;;5014134;28;20105;-78
2021/08/25 13:34:38;;;;;;;0.20;0.20;;;;;;;;;;5029410;28;20045;-78
2021/08/25 13:37:05;;;;;;;0.30;0.30;;;;;;;;;;5061058;28;20732;-78
2021/08/25 13:39:32;;;;;;;0.30;0.30;;;;;;;;;;5028878;28;20042;-78
2021/08/25 13:41:59;;;;;;;0.68;0.30;;;;;;;;;;5042348;28;20491;-78
2021/08/25 13:44:26;;;;;;;0.30;0.30;;;;;;;;;;5029129;28;20049;-78
2021/08/25 13:46:52;;;;;;;0.30;0.30;;;;;;;;;;5028273;28;20386;-78
2021/08/25 13:49:19;;;;;;;0.30;0.30;;;;;;;;;;5058889;28;20119;-78
2021/08/25 13:51:46;;;;;;;0.30;0.30;;;;;;;;;;5012756;28;20104;-78
2021/08/25 13:54:13;;;;;;;0.30;0.30;;;;;;;;;;5007529;28;20077;-78
2021/08/25 13:56:40;;;;;;;0.30;0.30;;;;;;;;;;5045951;28;20077;-78
2021/08/25 13:59:07;;;;;;;0.85;0.30;;;;;;;;;;5022077;28;20037;-78
2021/08/25 14:01:33;;;;;;;0.30;0.30;;;;;;;;;;5027516;28;20090;-78
2021/08/25 14:04:00;;;;;;;0.30;0.30;;;;;;;;;;5026681;28;20144;-78
2021/08/25 14:06:28;;;;;;;0.30;0.30;;;;;;;;;;5028241;28;20043;-78
2021/08/25 14:08:56;;;;;;;0.30;0.30;;;;;;;;;;5042371;28;20057;-78
2021/08/25 14:11:23;;;;;;;1.13;0.40;;;;;;;;;;5029436;28;20045;-78
2021/08/25 14:13:49;;;;;;;1.65;0.30;;;;;;;;;;5026105;28;20053;-78
2021/08/25 14:16:17;;;;;;;1.55;0.40;;;;;;;;;;5029561;28;20106;-78
2021/08/25 14:18:44;;;;;;;0.40;0.40;;;;;;;;;;5027551;28;20825;-78
2021/08/25 14:21:11;;;;;;;0.40;0.40;;;;;;;;;;5028617;28;20053;-78
2021/08/25 14:23:38;;;;;;;0.40;0.40;;;;;;;;;;5043816;28;20049;-78
2021/08/25 14:26:05;;;;;;;0.45;0.40;;;;;;;;;;5030733;28;20060;-78
2021/08/25 14:28:31;;;;;;;0.65;0.40;;;;;;;;;;5032714;28;20521;-78
2021/08/25 14:30:58;;;;;;;1.38;0.40;;;;;;;;;;5029320;28;20049;-78
2021/08/25 14:33:26;;;;;;;0.40;0.40;;;;;;;;;;5040317;28;20072;-76
2021/08/25 14:35:53;;;;;;;1.67;0.40;;;;;;;;;;5051270;28;20040;-78
2021/08/25 14:38:20;;;;;;;0.60;0.60;;;;;;;;;;5030171;28;20514;-78
2021/08/25 14:40:47;;;;;;;1.58;0.40;;;;;;;;;;5030696;28;20091;-78
2021/08/25 14:43:13;;;;;;;0.40;0.40;;;;;;;;;;5033448;28;20394;-78
2021/08/25 14:45:40;;;;;;;0.40;0.40;;;;;;;;;;5030887;28;20486;-78
2021/08/25 14:48:07;;;;;;;0.40;0.40;;;;;;;;;;5031386;28;20080;-78
2021/08/25 14:50:35;;;;;;;0.50;0.50;;;;;;;;;;5028542;28;20112;-78
2021/08/25 14:53:02;;;;;;;0.88;0.50;;;;;;;;;;5032055;28;20110;-78